sensor_id;sensor_type;location;lat;lon;timestamp;pressure;altitude;pressure_sealevel;temperature;humidity
48862;BME280;34681;49.188;-0.374;2023-07-31T00:00:21;101209.53;;;22.37;54.25
48862;BME280;34681;49.188;-0.374;2023-07-31T00:02:46;101221.53;;;22.37;54.31
48862;BME280;34681;49.188;-0.374;2023-07-31T00:05:12;101222.63;;;22.43;54.13
48862;BME280;34681;49.188;-0.374;2023-07-31T00:07:37;101229.25;;;22.49;53.89
48862;BME280;34681;49.188;-0.374;2023-07-31T00:10:03;101237.41;;;22.50;54.12
48862;BME280;34681;49.188;-0.374;2023-07-31T00:12:28;101230.31;;;22.48;53.87
48862;BME280;34681;49.188;-0.374;2023-07-31T00:14:53;101217.22;;;22.41;54.20
48862;BME280;34681;49.188;-0.374;2023-07-31T00:17:19;101216.19;;;22.36;54.03
48862;BME280;34681;49.188;-0.374;2023-07-31T00:19:44;101216.38;;;22.41;54.28
48862;BME280;34681;49.188;-0.374;2023-07-31T00:22:11;101206.09;;;22.35;54.60
48862;BME280;34681;49.188;-0.374;2023-07-31T00:24:36;101215.97;;;22.37;54.14
48862;BME280;34681;49.188;-0.374;2023-07-31T00:27:02;101209.94;;;22.40;54.12
48862;BME280;34681;49.188;-0.374;2023-07-31T00:29:27;101223.47;;;22.37;54.42
48862;BME280;34681;49.188;-0.374;2023-07-31T00:31:53;101220.25;;;22.40;54.39
48862;BME280;34681;49.188;-0.374;2023-07-31T00:34:18;101216.38;;;22.41;54.39
48862;BME280;34681;49.188;-0.374;2023-07-31T00:36:43;101211.47;;;22.36;54.29
48862;BME280;34681;49.188;-0.374;2023-07-31T00:39:09;101206.50;;;22.32;54.61
48862;BME280;34681;49.188;-0.374;2023-07-31T00:41:34;101204.38;;;22.27;54.76
48862;BME280;34681;49.188;-0.374;2023-07-31T00:43:59;101204.81;;;22.37;54.68
48862;BME280;34681;49.188;-0.374;2023-07-31T00:46:25;101211.88;;;22.40;54.88
48862;BME280;34681;49.188;-0.374;2023-07-31T00:48:50;101209.31;;;22.38;55.71
48862;BME280;34681;49.188;-0.374;2023-07-31T00:51:16;101199.22;;;22.37;55.86
48862;BME280;34681;49.188;-0.374;2023-07-31T00:53:42;101201.59;;;22.40;55.92
48862;BME280;34681;49.188;-0.374;2023-07-31T00:56:08;101192.38;;;22.47;55.79
48862;BME280;34681;49.188;-0.374;2023-07-31T00:58:33;101184.00;;;22.47;55.59
48862;BME280;34681;49.188;-0.374;2023-07-31T01:00:59;101183.59;;;22.36;55.88
48862;BME280;34681;49.188;-0.374;2023-07-31T01:03:24;101193.66;;;22.37;56.20
48862;BME280;34681;49.188;-0.374;2023-07-31T01:09:02;101174.56;;;22.41;55.73
48862;BME280;34681;49.188;-0.374;2023-07-31T01:11:35;101175.63;;;22.40;56.17
48862;BME280;34681;49.188;-0.374;2023-07-31T01:14:04;101176.50;;;22.47;55.78
48862;BME280;34681;49.188;-0.374;2023-07-31T01:16:29;101170.28;;;22.38;55.81
48862;BME280;34681;49.188;-0.374;2023-07-31T01:18:55;101167.69;;;22.50;56.00
48862;BME280;34681;49.188;-0.374;2023-07-31T01:26:48;101150.56;;;22.53;55.45
48862;BME280;34681;49.188;-0.374;2023-07-31T01:29:24;101160.44;;;22.36;56.08
48862;BME280;34681;49.188;-0.374;2023-07-31T01:31:55;101148.00;;;21.44;58.28
48862;BME280;34681;49.188;-0.374;2023-07-31T01:34:21;101141.94;;;21.34;59.29
48862;BME280;34681;49.188;-0.374;2023-07-31T01:36:47;101153.72;;;21.29;59.34
48862;BME280;34681;49.188;-0.374;2023-07-31T01:39:12;101140.91;;;21.35;59.29
48862;BME280;34681;49.188;-0.374;2023-07-31T01:41:38;101144.09;;;21.32;59.58
48862;BME280;34681;49.188;-0.374;2023-07-31T01:44:03;101141.94;;;21.27;59.37
48862;BME280;34681;49.188;-0.374;2023-07-31T01:46:29;101135.09;;;21.30;59.72
48862;BME280;34681;49.188;-0.374;2023-07-31T01:48:54;101144.09;;;21.32;59.50
48862;BME280;34681;49.188;-0.374;2023-07-31T01:51:19;101142.94;;;21.26;59.73
48862;BME280;34681;49.188;-0.374;2023-07-31T01:53:45;101145.72;;;21.26;59.91
48862;BME280;34681;49.188;-0.374;2023-07-31T01:56:10;101140.38;;;21.25;59.69
48862;BME280;34681;49.188;-0.374;2023-07-31T01:58:35;101133.19;;;21.37;59.71
48862;BME280;34681;49.188;-0.374;2023-07-31T02:01:01;101125.91;;;21.36;59.80
48862;BME280;34681;49.188;-0.374;2023-07-31T02:03:26;101112.22;;;21.41;59.53
48862;BME280;34681;49.188;-0.374;2023-07-31T02:05:53;101104.09;;;21.46;59.59
48862;BME280;34681;49.188;-0.374;2023-07-31T02:08:19;101103.25;;;21.46;59.25
48862;BME280;34681;49.188;-0.374;2023-07-31T02:10:44;101104.09;;;21.46;59.57
48862;BME280;34681;49.188;-0.374;2023-07-31T02:13:10;101081.16;;;21.38;59.59
48862;BME280;34681;49.188;-0.374;2023-07-31T02:15:36;101098.94;;;21.37;59.97
48862;BME280;34681;49.188;-0.374;2023-07-31T02:18:01;101095.84;;;21.25;60.33
48862;BME280;34681;49.188;-0.374;2023-07-31T02:20:27;101093.94;;;21.25;60.30
48862;BME280;34681;49.188;-0.374;2023-07-31T02:22:52;101085.00;;;21.30;60.39
48862;BME280;34681;49.188;-0.374;2023-07-31T02:25:17;101092.72;;;21.28;60.34
48862;BME280;34681;49.188;-0.374;2023-07-31T02:27:43;101093.78;;;21.27;60.66
48862;BME280;34681;49.188;-0.374;2023-07-31T02:30:08;101092.00;;;21.26;60.66
48862;BME280;34681;49.188;-0.374;2023-07-31T02:32:34;101098.28;;;21.28;60.77
48862;BME280;34681;49.188;-0.374;2023-07-31T02:34:59;101086.72;;;21.31;60.78
48862;BME280;34681;49.188;-0.374;2023-07-31T02:37:25;101091.41;;;21.30;60.92
48862;BME280;34681;49.188;-0.374;2023-07-31T02:39:51;101078.38;;;21.31;60.94
48862;BME280;34681;49.188;-0.374;2023-07-31T02:42:16;101072.94;;;21.23;61.25
48862;BME280;34681;49.188;-0.374;2023-07-31T02:44:41;101072.09;;;21.22;61.54
48862;BME280;34681;49.188;-0.374;2023-07-31T02:47:07;101060.97;;;21.22;61.59
48862;BME280;34681;49.188;-0.374;2023-07-31T02:49:32;101059.88;;;21.17;61.90
48862;BME280;34681;49.188;-0.374;2023-07-31T02:51:57;101054.72;;;21.14;61.55
48862;BME280;34681;49.188;-0.374;2023-07-31T02:54:23;101056.41;;;21.08;61.76
48862;BME280;34681;49.188;-0.374;2023-07-31T02:56:48;101056.59;;;21.00;61.90
48862;BME280;34681;49.188;-0.374;2023-07-31T02:59:14;101048.03;;;21.01;62.04
48862;BME280;34681;49.188;-0.374;2023-07-31T03:01:39;101047.59;;;20.98;62.28
48862;BME280;34681;49.188;-0.374;2023-07-31T03:04:05;101036.22;;;20.93;62.00
48862;BME280;34681;49.188;-0.374;2023-07-31T03:06:30;101042.84;;;20.85;62.33
48862;BME280;34681;49.188;-0.374;2023-07-31T03:08:55;101034.88;;;20.75;62.86
48862;BME280;34681;49.188;-0.374;2023-07-31T03:11:21;101047.53;;;20.78;63.00
48862;BME280;34681;49.188;-0.374;2023-07-31T03:13:46;101041.09;;;20.78;62.79
48862;BME280;34681;49.188;-0.374;2023-07-31T03:16:12;101040.69;;;20.81;62.74
48862;BME280;34681;49.188;-0.374;2023-07-31T03:18:37;101044.56;;;20.86;62.94
48862;BME280;34681;49.188;-0.374;2023-07-31T03:21:02;101034.09;;;20.88;62.59
48862;BME280;34681;49.188;-0.374;2023-07-31T03:23:29;101040.50;;;20.89;62.68
48862;BME280;34681;49.188;-0.374;2023-07-31T03:25:59;101039.03;;;20.99;62.45
48862;BME280;34681;49.188;-0.374;2023-07-31T03:28:24;101020.22;;;20.95;62.33
48862;BME280;34681;49.188;-0.374;2023-07-31T03:30:51;101014.84;;;20.93;62.47
48862;BME280;34681;49.188;-0.374;2023-07-31T03:33:16;101011.03;;;20.94;62.76
48862;BME280;34681;49.188;-0.374;2023-07-31T03:35:41;100997.78;;;21.03;62.23
48862;BME280;34681;49.188;-0.374;2023-07-31T03:38:07;101000.56;;;21.03;62.34
48862;BME280;34681;49.188;-0.374;2023-07-31T03:40:32;100999.03;;;21.00;62.46
48862;BME280;34681;49.188;-0.374;2023-07-31T03:42:57;100996.50;;;21.06;62.23
48862;BME280;34681;49.188;-0.374;2023-07-31T03:45:23;101000.34;;;21.04;62.38
48862;BME280;34681;49.188;-0.374;2023-07-31T03:47:48;100995.19;;;21.01;62.51
48862;BME280;34681;49.188;-0.374;2023-07-31T03:50:13;101005.44;;;21.01;62.64
48862;BME280;34681;49.188;-0.374;2023-07-31T03:52:39;101000.75;;;21.01;62.30
48862;BME280;34681;49.188;-0.374;2023-07-31T03:55:05;100994.75;;;20.98;62.20
48862;BME280;34681;49.188;-0.374;2023-07-31T03:57:30;100984.06;;;20.95;62.59
48862;BME280;34681;49.188;-0.374;2023-07-31T03:59:57;100984.28;;;21.00;62.40
48862;BME280;34681;49.188;-0.374;2023-07-31T04:02:23;100973.38;;;20.98;62.38
48862;BME280;34681;49.188;-0.374;2023-07-31T04:04:48;100969.50;;;20.99;62.48
48862;BME280;34681;49.188;-0.374;2023-07-31T04:07:14;100975.53;;;21.03;62.42
48862;BME280;34681;49.188;-0.374;2023-07-31T04:09:39;100979.16;;;21.03;62.31
48862;BME280;34681;49.188;-0.374;2023-07-31T04:12:06;100973.81;;;21.02;62.20
48862;BME280;34681;49.188;-0.374;2023-07-31T04:14:31;100966.31;;;21.09;62.43
48862;BME280;34681;49.188;-0.374;2023-07-31T04:16:56;100972.56;;;21.11;62.15
48862;BME280;34681;49.188;-0.374;2023-07-31T04:19:22;100972.75;;;21.10;62.12
48862;BME280;34681;49.188;-0.374;2023-07-31T04:21:47;100982.81;;;21.11;62.12
48862;BME280;34681;49.188;-0.374;2023-07-31T04:24:12;100989.66;;;21.15;62.04
48862;BME280;34681;49.188;-0.374;2023-07-31T04:26:38;100984.94;;;21.09;62.22
48862;BME280;34681;49.188;-0.374;2023-07-31T04:29:03;100991.56;;;21.08;62.06
48862;BME280;34681;49.188;-0.374;2023-07-31T04:31:29;100985.59;;;21.11;62.15
48862;BME280;34681;49.188;-0.374;2023-07-31T04:33:54;100979.81;;;21.12;62.18
48862;BME280;34681;49.188;-0.374;2023-07-31T04:36:19;100977.03;;;21.12;62.09
48862;BME280;34681;49.188;-0.374;2023-07-31T04:38:45;100977.25;;;21.11;62.12
48862;BME280;34681;49.188;-0.374;2023-07-31T04:41:10;100980.28;;;21.22;62.15
48862;BME280;34681;49.188;-0.374;2023-07-31T04:43:35;100981.19;;;21.29;61.88
48862;BME280;34681;49.188;-0.374;2023-07-31T04:46:04;100978.97;;;21.25;61.48
48862;BME280;34681;49.188;-0.374;2023-07-31T04:48:29;100969.78;;;21.24;61.42
48862;BME280;34681;49.188;-0.374;2023-07-31T04:50:54;100968.72;;;21.25;61.57
48862;BME280;34681;49.188;-0.374;2023-07-31T04:53:20;100974.50;;;21.24;61.87
48862;BME280;34681;49.188;-0.374;2023-07-31T04:55:45;100966.78;;;21.26;61.77
48862;BME280;34681;49.188;-0.374;2023-07-31T04:58:10;100976.50;;;21.37;61.66
48862;BME280;34681;49.188;-0.374;2023-07-31T05:00:36;100975.84;;;21.41;61.19
48862;BME280;34681;49.188;-0.374;2023-07-31T05:03:01;100983.78;;;21.44;61.15
48862;BME280;34681;49.188;-0.374;2023-07-31T05:05:26;100981.63;;;21.46;61.55
48862;BME280;34681;49.188;-0.374;2023-07-31T05:07:52;100959.16;;;21.54;61.15
48862;BME280;34681;49.188;-0.374;2023-07-31T05:10:17;100958.50;;;21.46;61.38
48862;BME280;34681;49.188;-0.374;2023-07-31T05:12:42;100949.09;;;21.53;61.09
48862;BME280;34681;49.188;-0.374;2023-07-31T05:15:08;100928.75;;;21.46;61.32
48862;BME280;34681;49.188;-0.374;2023-07-31T05:17:34;100931.09;;;21.49;61.13
48862;BME280;34681;49.188;-0.374;2023-07-31T05:19:59;100923.38;;;21.51;61.10
48862;BME280;34681;49.188;-0.374;2023-07-31T05:22:24;100919.53;;;21.66;60.71
48862;BME280;34681;49.188;-0.374;2023-07-31T05:24:50;100920.59;;;21.78;60.73
48862;BME280;34681;49.188;-0.374;2023-07-31T05:27:15;100905.59;;;21.85;60.37
48862;BME280;34681;49.188;-0.374;2023-07-31T05:29:43;100910.03;;;22.00;60.47
48862;BME280;34681;49.188;-0.374;2023-07-31T05:32:09;100914.75;;;22.19;59.78
48862;BME280;34681;49.188;-0.374;2023-07-31T05:34:34;100912.81;;;22.20;59.47
48862;BME280;34681;49.188;-0.374;2023-07-31T05:37:00;100915.38;;;22.28;59.37
48862;BME280;34681;49.188;-0.374;2023-07-31T05:39:25;100919.91;;;22.67;58.81
48862;BME280;34681;49.188;-0.374;2023-07-31T05:41:50;100926.38;;;23.06;57.83
48862;BME280;34681;49.188;-0.374;2023-07-31T05:44:16;100924.31;;;22.94;58.05
48862;BME280;34681;49.188;-0.374;2023-07-31T05:46:41;100931.84;;;22.81;58.24
48862;BME280;34681;49.188;-0.374;2023-07-31T05:49:07;100919.03;;;22.73;58.48
48862;BME280;34681;49.188;-0.374;2023-07-31T05:51:32;100918.16;;;22.86;58.01
48862;BME280;34681;49.188;-0.374;2023-07-31T05:53:57;100917.84;;;23.01;57.74
48862;BME280;34681;49.188;-0.374;2023-07-31T05:56:23;100923.94;;;23.16;57.56
48862;BME280;34681;49.188;-0.374;2023-07-31T05:58:48;100918.31;;;23.22;57.67
48862;BME280;34681;49.188;-0.374;2023-07-31T06:01:16;100921.13;;;23.22;57.49
48862;BME280;34681;49.188;-0.374;2023-07-31T06:03:42;100919.09;;;23.05;57.64
48862;BME280;34681;49.188;-0.374;2023-07-31T06:06:07;100922.78;;;22.98;57.87
48862;BME280;34681;49.188;-0.374;2023-07-31T06:08:33;100922.34;;;23.02;57.82
48862;BME280;34681;49.188;-0.374;2023-07-31T06:10:58;100916.44;;;23.16;57.90
48862;BME280;34681;49.188;-0.374;2023-07-31T06:13:23;100918.97;;;23.49;56.98
48862;BME280;34681;49.188;-0.374;2023-07-31T06:15:49;100918.63;;;23.39;57.01
48862;BME280;34681;49.188;-0.374;2023-07-31T06:18:14;100918.59;;;23.14;57.76
48862;BME280;34681;49.188;-0.374;2023-07-31T06:20:39;100919.63;;;23.20;57.60
48862;BME280;34681;49.188;-0.374;2023-07-31T06:23:06;100918.84;;;23.38;57.51
48862;BME280;34681;49.188;-0.374;2023-07-31T06:25:31;100918.47;;;23.59;56.75
48862;BME280;34681;49.188;-0.374;2023-07-31T06:27:56;100914.56;;;23.67;56.71
48862;BME280;34681;49.188;-0.374;2023-07-31T06:30:22;100909.72;;;23.49;56.93
48862;BME280;34681;49.188;-0.374;2023-07-31T06:32:47;100910.72;;;23.36;57.36
48862;BME280;34681;49.188;-0.374;2023-07-31T06:35:12;100905.84;;;23.50;57.07
48862;BME280;34681;49.188;-0.374;2023-07-31T06:37:38;100901.53;;;23.61;56.91
48862;BME280;34681;49.188;-0.374;2023-07-31T06:40:06;100899.97;;;23.58;57.13
48862;BME280;34681;49.188;-0.374;2023-07-31T06:42:32;100889.81;;;23.45;57.70
48862;BME280;34681;49.188;-0.374;2023-07-31T06:44:58;100898.50;;;23.31;58.21
48862;BME280;34681;49.188;-0.374;2023-07-31T06:47:23;100887.75;;;23.09;58.74
48862;BME280;34681;49.188;-0.374;2023-07-31T06:49:49;100889.25;;;23.05;58.80
48862;BME280;34681;49.188;-0.374;2023-07-31T06:52:14;100893.78;;;22.99;59.21
48862;BME280;34681;49.188;-0.374;2023-07-31T06:54:39;100879.75;;;22.75;59.85
48862;BME280;34681;49.188;-0.374;2023-07-31T06:57:05;100880.00;;;22.66;60.36
48862;BME280;34681;49.188;-0.374;2023-07-31T06:59:30;100883.06;;;22.58;60.91
48862;BME280;34681;49.188;-0.374;2023-07-31T07:01:55;100887.09;;;22.69;60.56
48862;BME280;34681;49.188;-0.374;2023-07-31T07:04:21;100883.03;;;22.65;60.67
48862;BME280;34681;49.188;-0.374;2023-07-31T07:06:46;100876.72;;;22.45;60.87
48862;BME280;34681;49.188;-0.374;2023-07-31T07:09:12;100890.03;;;22.36;61.17
48862;BME280;34681;49.188;-0.374;2023-07-31T07:11:37;100891.97;;;22.35;61.19
48862;BME280;34681;49.188;-0.374;2023-07-31T07:14:03;100880.63;;;22.30;61.99
48862;BME280;34681;49.188;-0.374;2023-07-31T07:16:28;100892.41;;;22.26;62.59
48862;BME280;34681;49.188;-0.374;2023-07-31T07:18:54;100889.63;;;22.26;62.67
48862;BME280;34681;49.188;-0.374;2023-07-31T07:21:19;100900.81;;;22.19;63.05
48862;BME280;34681;49.188;-0.374;2023-07-31T07:23:44;100898.25;;;22.04;63.41
48862;BME280;34681;49.188;-0.374;2023-07-31T07:26:10;100895.47;;;22.04;63.72
48862;BME280;34681;49.188;-0.374;2023-07-31T07:28:35;100895.47;;;21.98;64.51
48862;BME280;34681;49.188;-0.374;2023-07-31T07:31:02;100894.84;;;21.96;64.40
48862;BME280;34681;49.188;-0.374;2023-07-31T07:33:27;100898.72;;;22.01;64.75
48862;BME280;34681;49.188;-0.374;2023-07-31T07:35:53;100893.78;;;21.90;65.42
48862;BME280;34681;49.188;-0.374;2023-07-31T07:38:19;100894.44;;;21.85;65.30
48862;BME280;34681;49.188;-0.374;2023-07-31T07:40:44;100899.34;;;21.83;65.54
48862;BME280;34681;49.188;-0.374;2023-07-31T07:43:12;100890.59;;;21.86;65.41
48862;BME280;34681;49.188;-0.374;2023-07-31T07:45:37;100891.00;;;21.83;65.88
48862;BME280;34681;49.188;-0.374;2023-07-31T07:48:03;100883.31;;;21.85;66.06
48862;BME280;34681;49.188;-0.374;2023-07-31T07:50:28;100882.88;;;21.82;66.19
48862;BME280;34681;49.188;-0.374;2023-07-31T07:52:53;100882.47;;;21.78;66.44
48862;BME280;34681;49.188;-0.374;2023-07-31T07:55:19;100877.97;;;21.71;67.11
48862;BME280;34681;49.188;-0.374;2023-07-31T07:57:45;100882.06;;;21.68;67.26
48862;BME280;34681;49.188;-0.374;2023-07-31T08:00:11;100876.69;;;21.67;67.68
48862;BME280;34681;49.188;-0.374;2023-07-31T08:02:37;100869.84;;;21.69;67.36
48862;BME280;34681;49.188;-0.374;2023-07-31T08:05:02;100878.84;;;21.71;67.83
48862;BME280;34681;49.188;-0.374;2023-07-31T08:07:28;100869.41;;;21.72;68.10
48862;BME280;34681;49.188;-0.374;2023-07-31T08:09:53;100865.31;;;21.88;67.52
48862;BME280;34681;49.188;-0.374;2023-07-31T08:12:19;100843.88;;;21.82;67.98
48862;BME280;34681;49.188;-0.374;2023-07-31T08:14:44;100839.56;;;21.93;67.78
48862;BME280;34681;49.188;-0.374;2023-07-31T08:17:09;100848.06;;;22.18;67.34
48862;BME280;34681;49.188;-0.374;2023-07-31T08:19:35;100841.97;;;22.40;66.58
48862;BME280;34681;49.188;-0.374;2023-07-31T08:22:00;100827.28;;;22.58;66.34
48862;BME280;34681;49.188;-0.374;2023-07-31T08:24:25;100827.44;;;22.70;66.09
48862;BME280;34681;49.188;-0.374;2023-07-31T08:26:51;100831.56;;;22.67;66.02
48862;BME280;34681;49.188;-0.374;2023-07-31T08:29:16;100825.81;;;22.56;66.21
48862;BME280;34681;49.188;-0.374;2023-07-31T08:31:41;100830.34;;;22.50;66.41
48862;BME280;34681;49.188;-0.374;2023-07-31T08:34:07;100829.22;;;22.58;66.14
48862;BME280;34681;49.188;-0.374;2023-07-31T08:36:32;100820.47;;;22.54;66.44
48862;BME280;34681;49.188;-0.374;2023-07-31T08:38:57;100826.41;;;22.64;66.47
48862;BME280;34681;49.188;-0.374;2023-07-31T08:41:23;100815.22;;;22.71;66.16
48862;BME280;34681;49.188;-0.374;2023-07-31T08:43:49;100819.91;;;22.77;65.97
48862;BME280;34681;49.188;-0.374;2023-07-31T08:46:15;100814.31;;;22.77;66.08
48862;BME280;34681;49.188;-0.374;2023-07-31T08:48:44;100810.69;;;22.77;66.10
48862;BME280;34681;49.188;-0.374;2023-07-31T08:51:10;100813.84;;;22.80;65.80
48862;BME280;34681;49.188;-0.374;2023-07-31T08:53:36;100816.59;;;22.93;65.19
48862;BME280;34681;49.188;-0.374;2023-07-31T08:56:02;100823.88;;;22.94;65.45
48862;BME280;34681;49.188;-0.374;2023-07-31T08:58:31;100814.44;;;23.20;65.32
48862;BME280;34681;49.188;-0.374;2023-07-31T09:01:06;100808.84;;;23.20;64.84
48862;BME280;34681;49.188;-0.374;2023-07-31T09:03:36;100801.38;;;22.89;65.21
48862;BME280;34681;49.188;-0.374;2023-07-31T09:06:02;100809.38;;;22.79;65.72
48862;BME280;34681;49.188;-0.374;2023-07-31T09:08:30;100798.75;;;22.63;65.97
48862;BME280;34681;49.188;-0.374;2023-07-31T09:11:00;100798.16;;;22.54;66.82
48862;BME280;34681;49.188;-0.374;2023-07-31T09:13:28;100778.22;;;22.51;66.89
48862;BME280;34681;49.188;-0.374;2023-07-31T09:15:53;100788.22;;;22.65;66.64
48862;BME280;34681;49.188;-0.374;2023-07-31T09:18:18;100785.09;;;22.86;66.15
48862;BME280;34681;49.188;-0.374;2023-07-31T09:21:03;100780.53;;;22.92;66.20
48862;BME280;34681;49.188;-0.374;2023-07-31T09:23:43;100788.41;;;23.02;66.31
48862;BME280;34681;49.188;-0.374;2023-07-31T09:26:09;100780.09;;;22.95;65.89
48862;BME280;34681;49.188;-0.374;2023-07-31T09:28:36;100771.97;;;22.93;66.29
48862;BME280;34681;49.188;-0.374;2023-07-31T09:31:01;100789.97;;;22.91;66.18
48862;BME280;34681;49.188;-0.374;2023-07-31T09:33:27;100780.47;;;22.98;66.32
48862;BME280;34681;49.188;-0.374;2023-07-31T09:35:52;100780.63;;;23.10;65.89
48862;BME280;34681;49.188;-0.374;2023-07-31T09:38:17;100780.91;;;23.45;65.70
48862;BME280;34681;49.188;-0.374;2023-07-31T09:40:48;100779.78;;;23.90;64.38
48862;BME280;34681;49.188;-0.374;2023-07-31T09:43:17;100778.44;;;24.29;63.66
48862;BME280;34681;49.188;-0.374;2023-07-31T09:45:44;100791.56;;;24.28;63.50
48862;BME280;34681;49.188;-0.374;2023-07-31T09:48:13;100776.03;;;24.14;63.81
48862;BME280;34681;49.188;-0.374;2023-07-31T09:50:42;100779.31;;;24.11;63.45
48862;BME280;34681;49.188;-0.374;2023-07-31T09:53:08;100778.50;;;24.41;63.06
48862;BME280;34681;49.188;-0.374;2023-07-31T09:55:34;100783.91;;;24.54;62.54
48862;BME280;34681;49.188;-0.374;2023-07-31T09:58:03;100779.31;;;24.59;62.72
48862;BME280;34681;49.188;-0.374;2023-07-31T10:00:30;100774.91;;;24.93;61.33
48862;BME280;34681;49.188;-0.374;2023-07-31T10:02:58;100774.34;;;25.38;60.09
48862;BME280;34681;49.188;-0.374;2023-07-31T10:05:25;100775.69;;;25.83;59.53
48862;BME280;34681;49.188;-0.374;2023-07-31T10:07:54;100765.72;;;25.75;58.91
48862;BME280;34681;49.188;-0.374;2023-07-31T10:10:21;100773.50;;;25.85;59.05
48862;BME280;34681;49.188;-0.374;2023-07-31T10:12:52;100752.66;;;25.69;58.47
48862;BME280;34681;49.188;-0.374;2023-07-31T10:15:18;100752.31;;;25.77;58.55
48862;BME280;34681;49.188;-0.374;2023-07-31T10:17:48;100743.84;;;25.89;58.07
48862;BME280;34681;49.188;-0.374;2023-07-31T10:20:14;100750.59;;;26.16;57.25
48862;BME280;34681;49.188;-0.374;2023-07-31T10:22:42;100740.06;;;25.95;58.13
48862;BME280;34681;49.188;-0.374;2023-07-31T10:25:08;100736.81;;;25.86;57.94
48862;BME280;34681;49.188;-0.374;2023-07-31T10:27:35;100738.78;;;26.14;57.51
48862;BME280;34681;49.188;-0.374;2023-07-31T10:30:03;100728.91;;;26.69;56.43
48862;BME280;34681;49.188;-0.374;2023-07-31T10:32:30;100731.03;;;26.95;55.81
48862;BME280;34681;49.188;-0.374;2023-07-31T10:34:55;100743.28;;;26.89;55.51
48862;BME280;34681;49.188;-0.374;2023-07-31T10:37:25;100736.59;;;26.45;56.09
48862;BME280;34681;49.188;-0.374;2023-07-31T10:40:03;100733.22;;;26.43;56.25
48862;BME280;34681;49.188;-0.374;2023-07-31T10:42:53;100729.56;;;26.42;56.15
48862;BME280;34681;49.188;-0.374;2023-07-31T10:45:36;100720.03;;;26.43;56.44
48862;BME280;34681;49.188;-0.374;2023-07-31T10:48:05;100718.19;;;26.49;55.78
48862;BME280;34681;49.188;-0.374;2023-07-31T10:50:33;100709.38;;;26.74;55.25
48862;BME280;34681;49.188;-0.374;2023-07-31T10:53:01;100705.88;;;27.17;54.13
48862;BME280;34681;49.188;-0.374;2023-07-31T10:55:31;100704.69;;;27.52;53.47
48862;BME280;34681;49.188;-0.374;2023-07-31T10:58:04;100711.38;;;27.29;54.46
48862;BME280;34681;49.188;-0.374;2023-07-31T11:00:31;100701.53;;;27.09;54.67
48862;BME280;34681;49.188;-0.374;2023-07-31T11:03:02;100702.97;;;26.95;54.37
48862;BME280;34681;49.188;-0.374;2023-07-31T11:06:06;100701.38;;;27.16;54.27
48862;BME280;34681;49.188;-0.374;2023-07-31T11:08:33;100699.84;;;27.08;53.94
48862;BME280;34681;49.188;-0.374;2023-07-31T11:13:28;100696.34;;;26.68;55.05
48862;BME280;34681;49.188;-0.374;2023-07-31T11:15:53;100698.19;;;26.45;55.64
48862;BME280;34681;49.188;-0.374;2023-07-31T11:18:19;100694.69;;;26.55;55.60
48862;BME280;34681;49.188;-0.374;2023-07-31T11:20:44;100690.91;;;26.78;55.33
48862;BME280;34681;49.188;-0.374;2023-07-31T11:23:10;100697.72;;;27.15;54.52
48862;BME280;34681;49.188;-0.374;2023-07-31T11:25:37;100699.84;;;26.92;54.94
48862;BME280;34681;49.188;-0.374;2023-07-31T11:28:06;100700.75;;;26.80;55.05
48862;BME280;34681;49.188;-0.374;2023-07-31T11:30:33;100703.38;;;26.70;55.14
48862;BME280;34681;49.188;-0.374;2023-07-31T11:33:00;100716.03;;;26.56;55.38
48862;BME280;34681;49.188;-0.374;2023-07-31T11:35:25;100698.78;;;26.64;55.41
48862;BME280;34681;49.188;-0.374;2023-07-31T11:37:51;100708.69;;;27.17;54.05
48862;BME280;34681;49.188;-0.374;2023-07-31T11:40:16;100714.56;;;27.54;53.42
48862;BME280;34681;49.188;-0.374;2023-07-31T11:42:42;100714.63;;;27.21;53.60
48862;BME280;34681;49.188;-0.374;2023-07-31T11:45:08;100699.41;;;27.00;54.41
48862;BME280;34681;49.188;-0.374;2023-07-31T11:47:37;100700.47;;;27.49;53.84
48862;BME280;34681;49.188;-0.374;2023-07-31T11:50:03;100697.91;;;27.48;53.89
48862;BME280;34681;49.188;-0.374;2023-07-31T11:52:49;100713.84;;;27.42;53.51
48862;BME280;34681;49.188;-0.374;2023-07-31T11:55:18;100700.75;;;27.31;53.92
48862;BME280;34681;49.188;-0.374;2023-07-31T11:57:45;100688.16;;;27.33;53.66
48862;BME280;34681;49.188;-0.374;2023-07-31T12:00:11;100687.34;;;27.16;54.23
48862;BME280;34681;49.188;-0.374;2023-07-31T12:02:38;100688.09;;;26.78;55.31
48862;BME280;34681;49.188;-0.374;2023-07-31T12:05:06;100684.47;;;26.32;56.49
48862;BME280;34681;49.188;-0.374;2023-07-31T12:07:52;100683.56;;;25.86;57.90
48862;BME280;34681;49.188;-0.374;2023-07-31T12:13:11;100669.44;;;25.69;58.82
48862;BME280;34681;49.188;-0.374;2023-07-31T12:15:42;100668.50;;;25.75;58.81
48862;BME280;34681;49.188;-0.374;2023-07-31T12:18:13;100674.56;;;25.72;58.41
48862;BME280;34681;49.188;-0.374;2023-07-31T12:21:08;100685.66;;;25.56;59.47
48862;BME280;34681;49.188;-0.374;2023-07-31T12:23:37;100676.84;;;25.24;60.15
48862;BME280;34681;49.188;-0.374;2023-07-31T12:26:13;100673.34;;;25.16;60.65
48862;BME280;34681;49.188;-0.374;2023-07-31T12:28:46;100672.81;;;24.84;61.28
48862;BME280;34681;49.188;-0.374;2023-07-31T12:31:20;100663.69;;;24.77;62.05
48862;BME280;34681;49.188;-0.374;2023-07-31T12:33:47;100654.78;;;24.57;62.75
48862;BME280;34681;49.188;-0.374;2023-07-31T12:36:15;100659.16;;;24.64;62.98
48862;BME280;34681;49.188;-0.374;2023-07-31T12:38:42;100638.50;;;25.01;62.19
48862;BME280;34681;49.188;-0.374;2023-07-31T12:41:07;100630.16;;;25.53;61.21
48862;BME280;34681;49.188;-0.374;2023-07-31T12:43:38;100638.00;;;25.79;60.38
48862;BME280;34681;49.188;-0.374;2023-07-31T12:46:04;100627.69;;;25.68;59.76
48862;BME280;34681;49.188;-0.374;2023-07-31T12:48:29;100638.03;;;25.67;60.38
48862;BME280;34681;49.188;-0.374;2023-07-31T12:50:54;100614.41;;;25.63;60.22